sensor_id;sensor_type;location;lat;lon;timestamp;P1;durP1;ratioP1;P2;durP2;ratioP2
60819;SDS011;46641;48.904;9.126;2024-03-02T00:04:02;11.23;;;9.87;;
60819;SDS011;46641;48.904;9.126;2024-03-02T00:08:57;12.73;;;10.97;;
60819;SDS011;46641;48.904;9.126;2024-03-02T00:13:48;11.20;;;9.63;;
60819;SDS011;46641;48.904;9.126;2024-03-02T00:18:42;11.73;;;8.57;;
60819;SDS011;46641;48.904;9.126;2024-03-02T00:23:33;10.83;;;9.03;;
60819;SDS011;46641;48.904;9.126;2024-03-02T00:33:18;10.37;;;9.07;;
60819;SDS011;46641;48.904;9.126;2024-03-02T00:38:10;11.97;;;9.70;;
60819;SDS011;46641;48.904;9.126;2024-03-02T00:43:01;12.10;;;9.50;;
60819;SDS011;46641;48.904;9.126;2024-03-02T00:47:53;11.97;;;9.63;;
60819;SDS011;46641;48.904;9.126;2024-03-02T00:52:43;9.68;;;8.43;;
60819;SDS011;46641;48.904;9.126;2024-03-02T00:57:34;11.43;;;9.10;;
60819;SDS011;46641;48.904;9.126;2024-03-02T01:02:25;10.77;;;9.47;;
60819;SDS011;46641;48.904;9.126;2024-03-02T01:07:15;10.77;;;8.57;;
60819;SDS011;46641;48.904;9.126;2024-03-02T01:12:06;10.67;;;8.73;;
60819;SDS011;46641;48.904;9.126;2024-03-02T01:16:56;9.87;;;8.87;;
60819;SDS011;46641;48.904;9.126;2024-03-02T01:21:47;9.77;;;8.50;;
60819;SDS011;46641;48.904;9.126;2024-03-02T01:26:37;10.73;;;8.60;;
60819;SDS011;46641;48.904;9.126;2024-03-02T01:31:27;9.07;;;8.17;;
60819;SDS011;46641;48.904;9.126;2024-03-02T01:36:18;9.40;;;8.05;;
60819;SDS011;46641;48.904;9.126;2024-03-02T01:41:08;9.77;;;8.77;;
60819;SDS011;46641;48.904;9.126;2024-03-02T01:45:58;11.20;;;8.47;;
60819;SDS011;46641;48.904;9.126;2024-03-02T01:50:49;9.30;;;8.40;;
60819;SDS011;46641;48.904;9.126;2024-03-02T01:55:40;10.23;;;8.50;;
60819;SDS011;46641;48.904;9.126;2024-03-02T02:00:30;8.57;;;7.78;;
60819;SDS011;46641;48.904;9.126;2024-03-02T02:05:20;8.87;;;7.60;;
60819;SDS011;46641;48.904;9.126;2024-03-02T02:10:11;8.73;;;7.83;;
60819;SDS011;46641;48.904;9.126;2024-03-02T02:15:02;10.13;;;8.70;;
60819;SDS011;46641;48.904;9.126;2024-03-02T02:19:53;11.03;;;9.53;;
60819;SDS011;46641;48.904;9.126;2024-03-02T02:24:43;10.97;;;8.23;;
60819;SDS011;46641;48.904;9.126;2024-03-02T02:29:33;9.20;;;7.63;;
60819;SDS011;46641;48.904;9.126;2024-03-02T02:34:24;8.40;;;7.13;;
60819;SDS011;46641;48.904;9.126;2024-03-02T02:39:15;9.75;;;7.72;;
60819;SDS011;46641;48.904;9.126;2024-03-02T02:44:08;10.13;;;8.17;;
60819;SDS011;46641;48.904;9.126;2024-03-02T02:49:01;9.90;;;8.90;;
60819;SDS011;46641;48.904;9.126;2024-03-02T02:53:51;11.55;;;9.10;;
60819;SDS011;46641;48.904;9.126;2024-03-02T02:58:42;11.33;;;8.63;;
60819;SDS011;46641;48.904;9.126;2024-03-02T03:03:32;10.37;;;9.07;;
60819;SDS011;46641;48.904;9.126;2024-03-02T03:08:22;11.15;;;9.25;;
60819;SDS011;46641;48.904;9.126;2024-03-02T03:13:13;10.93;;;9.63;;
60819;SDS011;46641;48.904;9.126;2024-03-02T03:18:04;10.38;;;9.27;;
60819;SDS011;46641;48.904;9.126;2024-03-02T03:22:54;11.07;;;9.37;;
60819;SDS011;46641;48.904;9.126;2024-03-02T03:27:45;11.00;;;9.27;;
60819;SDS011;46641;48.904;9.126;2024-03-02T03:32:36;12.57;;;10.40;;
60819;SDS011;46641;48.904;9.126;2024-03-02T03:37:26;11.07;;;8.97;;
60819;SDS011;46641;48.904;9.126;2024-03-02T03:42:22;13.40;;;10.03;;
60819;SDS011;46641;48.904;9.126;2024-03-02T03:47:12;12.35;;;10.13;;
60819;SDS011;46641;48.904;9.126;2024-03-02T03:52:03;11.07;;;9.90;;
60819;SDS011;46641;48.904;9.126;2024-03-02T03:56:54;11.43;;;10.03;;
60819;SDS011;46641;48.904;9.126;2024-03-02T04:01:44;11.50;;;9.13;;
60819;SDS011;46641;48.904;9.126;2024-03-02T04:06:34;11.30;;;8.95;;
60819;SDS011;46641;48.904;9.126;2024-03-02T04:11:25;11.43;;;9.23;;
60819;SDS011;46641;48.904;9.126;2024-03-02T04:16:15;12.10;;;9.85;;
60819;SDS011;46641;48.904;9.126;2024-03-02T04:21:05;11.30;;;9.10;;
60819;SDS011;46641;48.904;9.126;2024-03-02T04:25:55;12.38;;;9.77;;
60819;SDS011;46641;48.904;9.126;2024-03-02T04:30:46;10.80;;;9.63;;
60819;SDS011;46641;48.904;9.126;2024-03-02T04:35:36;13.37;;;10.27;;
60819;SDS011;46641;48.904;9.126;2024-03-02T04:40:27;13.77;;;10.43;;
60819;SDS011;46641;48.904;9.126;2024-03-02T04:45:17;12.70;;;10.82;;
60819;SDS011;46641;48.904;9.126;2024-03-02T04:50:07;14.00;;;10.05;;
60819;SDS011;46641;48.904;9.126;2024-03-02T04:54:58;12.77;;;10.07;;
60819;SDS011;46641;48.904;9.126;2024-03-02T05:00:14;13.50;;;10.27;;
60819;SDS011;46641;48.904;9.126;2024-03-02T05:05:05;11.50;;;9.93;;
60819;SDS011;46641;48.904;9.126;2024-03-02T05:09:55;14.47;;;11.33;;
60819;SDS011;46641;48.904;9.126;2024-03-02T05:14:46;12.57;;;9.57;;
60819;SDS011;46641;48.904;9.126;2024-03-02T05:19:36;12.43;;;10.60;;
60819;SDS011;46641;48.904;9.126;2024-03-02T05:24:26;13.25;;;10.48;;
60819;SDS011;46641;48.904;9.126;2024-03-02T05:29:20;11.93;;;10.23;;
60819;SDS011;46641;48.904;9.126;2024-03-02T05:34:11;13.23;;;10.27;;
60819;SDS011;46641;48.904;9.126;2024-03-02T05:39:02;13.37;;;10.60;;
60819;SDS011;46641;48.904;9.126;2024-03-02T05:43:54;11.10;;;9.17;;
60819;SDS011;46641;48.904;9.126;2024-03-02T05:48:45;13.13;;;10.20;;
60819;SDS011;46641;48.904;9.126;2024-03-02T05:53:35;15.10;;;10.80;;
60819;SDS011;46641;48.904;9.126;2024-03-02T05:58:28;14.33;;;10.47;;
60819;SDS011;46641;48.904;9.126;2024-03-02T06:03:39;11.93;;;8.93;;
60819;SDS011;46641;48.904;9.126;2024-03-02T06:08:30;12.13;;;10.23;;
60819;SDS011;46641;48.904;9.126;2024-03-02T06:13:20;13.20;;;10.23;;
60819;SDS011;46641;48.904;9.126;2024-03-02T06:18:10;11.52;;;10.32;;
60819;SDS011;46641;48.904;9.126;2024-03-02T06:23:00;14.40;;;9.95;;
60819;SDS011;46641;48.904;9.126;2024-03-02T06:27:51;11.73;;;10.07;;
60819;SDS011;46641;48.904;9.126;2024-03-02T06:32:42;11.68;;;8.70;;
60819;SDS011;46641;48.904;9.126;2024-03-02T06:37:32;10.73;;;8.13;;
60819;SDS011;46641;48.904;9.126;2024-03-02T06:42:23;12.33;;;9.33;;
60819;SDS011;46641;48.904;9.126;2024-03-02T06:47:14;11.67;;;9.07;;
60819;SDS011;46641;48.904;9.126;2024-03-02T06:52:06;11.00;;;8.77;;
60819;SDS011;46641;48.904;9.126;2024-03-02T06:56:56;12.02;;;9.77;;
60819;SDS011;46641;48.904;9.126;2024-03-02T07:01:47;11.60;;;9.25;;
60819;SDS011;46641;48.904;9.126;2024-03-02T07:06:38;12.17;;;10.83;;
60819;SDS011;46641;48.904;9.126;2024-03-02T07:11:28;12.83;;;9.40;;
60819;SDS011;46641;48.904;9.126;2024-03-02T07:16:19;14.10;;;10.97;;
60819;SDS011;46641;48.904;9.126;2024-03-02T07:21:17;12.77;;;10.27;;
60819;SDS011;46641;48.904;9.126;2024-03-02T07:26:08;13.77;;;10.27;;
60819;SDS011;46641;48.904;9.126;2024-03-02T07:35:49;12.70;;;9.77;;
60819;SDS011;46641;48.904;9.126;2024-03-02T07:40:40;13.10;;;10.50;;
60819;SDS011;46641;48.904;9.126;2024-03-02T07:45:30;11.43;;;9.10;;
60819;SDS011;46641;48.904;9.126;2024-03-02T07:50:20;12.95;;;9.50;;
60819;SDS011;46641;48.904;9.126;2024-03-02T07:55:10;9.38;;;8.45;;
60819;SDS011;46641;48.904;9.126;2024-03-02T08:00:01;13.38;;;10.65;;
60819;SDS011;46641;48.904;9.126;2024-03-02T08:04:51;12.48;;;10.15;;
60819;SDS011;46641;48.904;9.126;2024-03-02T08:09:41;12.27;;;9.00;;
60819;SDS011;46641;48.904;9.126;2024-03-02T08:14:32;4.32;;;3.92;;
60819;SDS011;46641;48.904;9.126;2024-03-02T08:19:22;13.13;;;11.73;;
60819;SDS011;46641;48.904;9.126;2024-03-02T08:24:13;13.00;;;10.33;;
60819;SDS011;46641;48.904;9.126;2024-03-02T08:29:03;12.23;;;10.43;;
60819;SDS011;46641;48.904;9.126;2024-03-02T08:33:53;14.87;;;10.67;;
60819;SDS011;46641;48.904;9.126;2024-03-02T08:38:44;14.85;;;10.35;;
60819;SDS011;46641;48.904;9.126;2024-03-02T08:43:34;19.40;;;16.07;;
60819;SDS011;46641;48.904;9.126;2024-03-02T08:48:24;15.57;;;12.00;;
60819;SDS011;46641;48.904;9.126;2024-03-02T08:53:15;11.27;;;9.20;;
60819;SDS011;46641;48.904;9.126;2024-03-02T08:58:08;10.03;;;8.63;;
60819;SDS011;46641;48.904;9.126;2024-03-02T09:02:58;9.65;;;8.07;;
60819;SDS011;46641;48.904;9.126;2024-03-02T09:07:49;8.17;;;7.10;;
60819;SDS011;46641;48.904;9.126;2024-03-02T09:12:39;9.27;;;7.53;;
60819;SDS011;46641;48.904;9.126;2024-03-02T09:17:30;9.13;;;7.35;;
60819;SDS011;46641;48.904;9.126;2024-03-02T09:22:20;7.95;;;6.88;;
60819;SDS011;46641;48.904;9.126;2024-03-02T09:27:10;8.40;;;7.03;;
60819;SDS011;46641;48.904;9.126;2024-03-02T09:32:01;8.43;;;6.73;;
60819;SDS011;46641;48.904;9.126;2024-03-02T09:36:51;8.70;;;6.83;;
60819;SDS011;46641;48.904;9.126;2024-03-02T09:41:41;8.97;;;6.83;;
60819;SDS011;46641;48.904;9.126;2024-03-02T09:46:32;7.93;;;6.43;;
60819;SDS011;46641;48.904;9.126;2024-03-02T09:51:23;8.63;;;6.53;;
60819;SDS011;46641;48.904;9.126;2024-03-02T09:56:13;7.50;;;6.30;;
60819;SDS011;46641;48.904;9.126;2024-03-02T10:01:05;7.97;;;6.25;;
60819;SDS011;46641;48.904;9.126;2024-03-02T10:05:56;6.67;;;5.47;;
60819;SDS011;46641;48.904;9.126;2024-03-02T10:10:46;7.87;;;5.17;;
60819;SDS011;46641;48.904;9.126;2024-03-02T10:15:37;7.37;;;5.37;;
60819;SDS011;46641;48.904;9.126;2024-03-02T10:20:28;5.47;;;4.90;;
60819;SDS011;46641;48.904;9.126;2024-03-02T10:25:31;6.47;;;5.37;;
60819;SDS011;46641;48.904;9.126;2024-03-02T10:30:22;5.53;;;5.03;;
60819;SDS011;46641;48.904;9.126;2024-03-02T10:35:13;5.47;;;4.97;;
60819;SDS011;46641;48.904;9.126;2024-03-02T10:40:04;5.40;;;4.90;;
60819;SDS011;46641;48.904;9.126;2024-03-02T10:44:55;4.97;;;4.47;;
60819;SDS011;46641;48.904;9.126;2024-03-02T10:49:45;5.00;;;4.47;;
60819;SDS011;46641;48.904;9.126;2024-03-02T10:54:37;6.07;;;4.37;;
60819;SDS011;46641;48.904;9.126;2024-03-02T10:59:33;4.77;;;4.20;;
60819;SDS011;46641;48.904;9.126;2024-03-02T11:04:26;3.60;;;3.30;;
60819;SDS011;46641;48.904;9.126;2024-03-02T11:09:22;3.63;;;3.23;;
60819;SDS011;46641;48.904;9.126;2024-03-02T11:14:16;4.30;;;3.87;;
60819;SDS011;46641;48.904;9.126;2024-03-02T11:19:10;4.77;;;3.50;;
60819;SDS011;46641;48.904;9.126;2024-03-02T11:29:21;3.53;;;3.07;;
60819;SDS011;46641;48.904;9.126;2024-03-02T11:34:35;3.30;;;2.80;;
60819;SDS011;46641;48.904;9.126;2024-03-02T11:39:26;2.43;;;2.23;;
60819;SDS011;46641;48.904;9.126;2024-03-02T11:44:17;2.70;;;2.50;;
60819;SDS011;46641;48.904;9.126;2024-03-02T11:49:08;2.10;;;1.90;;
60819;SDS011;46641;48.904;9.126;2024-03-02T11:53:59;2.93;;;1.70;;
60819;SDS011;46641;48.904;9.126;2024-03-02T11:58:53;2.00;;;1.90;;
60819;SDS011;46641;48.904;9.126;2024-03-02T12:03:43;2.50;;;2.30;;
60819;SDS011;46641;48.904;9.126;2024-03-02T12:08:34;2.33;;;2.00;;
60819;SDS011;46641;48.904;9.126;2024-03-02T12:13:24;2.37;;;1.67;;
60819;SDS011;46641;48.904;9.126;2024-03-02T12:18:15;1.40;;;1.30;;
60819;SDS011;46641;48.904;9.126;2024-03-02T12:23:05;1.77;;;1.63;;
60819;SDS011;46641;48.904;9.126;2024-03-02T12:27:56;2.33;;;2.13;;
60819;SDS011;46641;48.904;9.126;2024-03-02T12:32:48;2.97;;;1.73;;
60819;SDS011;46641;48.904;9.126;2024-03-02T12:37:42;2.03;;;1.90;;
60819;SDS011;46641;48.904;9.126;2024-03-02T12:42:36;1.67;;;1.57;;
60819;SDS011;46641;48.904;9.126;2024-03-02T12:47:27;1.53;;;1.43;;
60819;SDS011;46641;48.904;9.126;2024-03-02T12:52:17;1.85;;;1.75;;
60819;SDS011;46641;48.904;9.126;2024-03-02T12:57:08;1.57;;;1.47;;
60819;SDS011;46641;48.904;9.126;2024-03-02T13:01:58;1.42;;;1.33;;
60819;SDS011;46641;48.904;9.126;2024-03-02T13:06:49;1.20;;;1.10;;
60819;SDS011;46641;48.904;9.126;2024-03-02T13:11:39;3.03;;;1.70;;
60819;SDS011;46641;48.904;9.126;2024-03-02T13:16:30;1.30;;;1.20;;
60819;SDS011;46641;48.904;9.126;2024-03-02T13:21:20;1.20;;;1.10;;
60819;SDS011;46641;48.904;9.126;2024-03-02T13:26:10;1.40;;;1.10;;
60819;SDS011;46641;48.904;9.126;2024-03-02T13:31:02;3.33;;;3.03;;
60819;SDS011;46641;48.904;9.126;2024-03-02T13:35:52;1.30;;;1.20;;
60819;SDS011;46641;48.904;9.126;2024-03-02T13:40:43;3.45;;;2.97;;
60819;SDS011;46641;48.904;9.126;2024-03-02T13:45:33;2.27;;;2.07;;
60819;SDS011;46641;48.904;9.126;2024-03-02T13:50:23;1.30;;;1.20;;
60819;SDS011;46641;48.904;9.126;2024-03-02T13:55:14;1.43;;;1.00;;
60819;SDS011;46641;48.904;9.126;2024-03-02T14:00:04;1.02;;;1.02;;
60819;SDS011;46641;48.904;9.126;2024-03-02T14:05:00;1.23;;;1.20;;
60819;SDS011;46641;48.904;9.126;2024-03-02T14:09:50;1.33;;;1.23;;
60819;SDS011;46641;48.904;9.126;2024-03-02T14:14:40;1.00;;;1.00;;
60819;SDS011;46641;48.904;9.126;2024-03-02T14:19:31;1.33;;;1.23;;
60819;SDS011;46641;48.904;9.126;2024-03-02T14:24:22;1.37;;;1.20;;
60819;SDS011;46641;48.904;9.126;2024-03-02T14:29:16;1.27;;;1.10;;
60819;SDS011;46641;48.904;9.126;2024-03-02T14:34:06;1.40;;;1.10;;
60819;SDS011;46641;48.904;9.126;2024-03-02T14:38:58;1.57;;;1.43;;
60819;SDS011;46641;48.904;9.126;2024-03-02T14:43:48;1.63;;;1.13;;
60819;SDS011;46641;48.904;9.126;2024-03-02T14:48:39;1.50;;;1.40;;
60819;SDS011;46641;48.904;9.126;2024-03-02T14:53:29;2.00;;;1.33;;
60819;SDS011;46641;48.904;9.126;2024-03-02T14:58:20;1.48;;;1.35;;
60819;SDS011;46641;48.904;9.126;2024-03-02T15:03:10;1.10;;;1.00;;
60819;SDS011;46641;48.904;9.126;2024-03-02T15:08:01;1.80;;;1.53;;
60819;SDS011;46641;48.904;9.126;2024-03-02T15:12:54;1.70;;;1.50;;
60819;SDS011;46641;48.904;9.126;2024-03-02T15:17:44;2.00;;;1.37;;
60819;SDS011;46641;48.904;9.126;2024-03-02T15:22:34;1.57;;;1.30;;
60819;SDS011;46641;48.904;9.126;2024-03-02T15:27:25;1.50;;;1.40;;
60819;SDS011;46641;48.904;9.126;2024-03-02T15:32:17;1.30;;;1.20;;
60819;SDS011;46641;48.904;9.126;2024-03-02T15:37:07;1.40;;;1.30;;
60819;SDS011;46641;48.904;9.126;2024-03-02T15:41:58;2.00;;;1.77;;
60819;SDS011;46641;48.904;9.126;2024-03-02T15:46:48;1.10;;;1.00;;
60819;SDS011;46641;48.904;9.126;2024-03-02T15:51:38;1.40;;;1.30;;
60819;SDS011;46641;48.904;9.126;2024-03-02T15:56:33;1.77;;;1.33;;
60819;SDS011;46641;48.904;9.126;2024-03-02T16:01:24;1.40;;;1.30;;
60819;SDS011;46641;48.904;9.126;2024-03-02T16:06:14;1.60;;;1.50;;
60819;SDS011;46641;48.904;9.126;2024-03-02T16:11:05;1.83;;;1.30;;
60819;SDS011;46641;48.904;9.126;2024-03-02T16:15:55;3.20;;;2.10;;
60819;SDS011;46641;48.904;9.126;2024-03-02T16:20:45;1.83;;;1.73;;
60819;SDS011;46641;48.904;9.126;2024-03-02T16:25:36;2.00;;;1.80;;
60819;SDS011;46641;48.904;9.126;2024-03-02T16:30:27;3.90;;;1.97;;
60819;SDS011;46641;48.904;9.126;2024-03-02T16:35:17;1.73;;;1.60;;
60819;SDS011;46641;48.904;9.126;2024-03-02T16:40:08;1.70;;;1.60;;
60819;SDS011;46641;48.904;9.126;2024-03-02T16:44:59;1.87;;;1.57;;
60819;SDS011;46641;48.904;9.126;2024-03-02T16:49:49;1.93;;;1.80;;
60819;SDS011;46641;48.904;9.126;2024-03-02T16:54:39;1.83;;;1.73;;
60819;SDS011;46641;48.904;9.126;2024-03-02T16:59:30;4.07;;;2.50;;
60819;SDS011;46641;48.904;9.126;2024-03-02T17:04:20;1.80;;;1.70;;
60819;SDS011;46641;48.904;9.126;2024-03-02T17:09:10;2.10;;;1.90;;
60819;SDS011;46641;48.904;9.126;2024-03-02T17:14:01;2.10;;;1.90;;
60819;SDS011;46641;48.904;9.126;2024-03-02T17:18:53;2.57;;;2.37;;
60819;SDS011;46641;48.904;9.126;2024-03-02T17:23:43;2.83;;;2.40;;
60819;SDS011;46641;48.904;9.126;2024-03-02T17:28:33;3.50;;;2.50;;
60819;SDS011;46641;48.904;9.126;2024-03-02T17:33:24;6.30;;;5.37;;
60819;SDS011;46641;48.904;9.126;2024-03-02T17:38:14;4.67;;;4.20;;
60819;SDS011;46641;48.904;9.126;2024-03-02T17:43:04;6.20;;;5.07;;
60819;SDS011;46641;48.904;9.126;2024-03-02T17:47:55;6.57;;;4.57;;
60819;SDS011;46641;48.904;9.126;2024-03-02T17:52:45;7.40;;;6.60;;
60819;SDS011;46641;48.904;9.126;2024-03-02T17:57:36;7.47;;;6.83;;
60819;SDS011;46641;48.904;9.126;2024-03-02T18:02:27;15.00;;;13.43;;
60819;SDS011;46641;48.904;9.126;2024-03-02T18:07:19;16.47;;;14.30;;
60819;SDS011;46641;48.904;9.126;2024-03-02T18:12:10;8.50;;;7.67;;
60819;SDS011;46641;48.904;9.126;2024-03-02T18:17:00;9.40;;;7.88;;
60819;SDS011;46641;48.904;9.126;2024-03-02T18:21:50;6.93;;;5.33;;
60819;SDS011;46641;48.904;9.126;2024-03-02T18:26:40;6.95;;;6.25;;
60819;SDS011;46641;48.904;9.126;2024-03-02T18:31:31;4.50;;;4.10;;
60819;SDS011;46641;48.904;9.126;2024-03-02T18:36:21;7.30;;;5.33;;
60819;SDS011;46641;48.904;9.126;2024-03-02T18:41:12;6.90;;;6.20;;
60819;SDS011;46641;48.904;9.126;2024-03-02T18:46:02;8.65;;;6.72;;
60819;SDS011;46641;48.904;9.126;2024-03-02T18:50:56;10.40;;;7.97;;
60819;SDS011;46641;48.904;9.126;2024-03-02T18:55:46;11.63;;;8.47;;
60819;SDS011;46641;48.904;9.126;2024-03-02T19:00:37;9.50;;;8.50;;
60819;SDS011;46641;48.904;9.126;2024-03-02T19:05:28;14.27;;;8.57;;
60819;SDS011;46641;48.904;9.126;2024-03-02T19:10:18;10.23;;;9.23;;
60819;SDS011;46641;48.904;9.126;2024-03-02T19:15:08;9.87;;;8.87;;
60819;SDS011;46641;48.904;9.126;2024-03-02T19:20:01;8.07;;;7.03;;
60819;SDS011;46641;48.904;9.126;2024-03-02T19:24:52;12.77;;;10.50;;
60819;SDS011;46641;48.904;9.126;2024-03-02T19:29:43;10.63;;;9.53;;
60819;SDS011;46641;48.904;9.126;2024-03-02T19:34:34;12.73;;;11.03;;
60819;SDS011;46641;48.904;9.126;2024-03-02T19:39:25;15.07;;;12.30;;
60819;SDS011;46641;48.904;9.126;2024-03-02T19:44:18;14.67;;;11.07;;
60819;SDS011;46641;48.904;9.126;2024-03-02T19:49:08;13.13;;;11.20;;
60819;SDS011;46641;48.904;9.126;2024-03-02T19:53:58;14.77;;;11.93;;
60819;SDS011;46641;48.904;9.126;2024-03-02T19:58:50;13.60;;;10.60;;
60819;SDS011;46641;48.904;9.126;2024-03-02T20:03:40;14.10;;;12.50;;
60819;SDS011;46641;48.904;9.126;2024-03-02T20:08:30;14.20;;;11.03;;
60819;SDS011;46641;48.904;9.126;2024-03-02T20:13:21;16.33;;;13.63;;
60819;SDS011;46641;48.904;9.126;2024-03-02T20:18:12;14.70;;;12.40;;
60819;SDS011;46641;48.904;9.126;2024-03-02T20:23:02;18.13;;;13.93;;
60819;SDS011;46641;48.904;9.126;2024-03-02T20:27:54;15.80;;;12.20;;
60819;SDS011;46641;48.904;9.126;2024-03-02T20:32:44;16.67;;;13.37;;
60819;SDS011;46641;48.904;9.126;2024-03-02T20:37:35;16.70;;;12.32;;
60819;SDS011;46641;48.904;9.126;2024-03-02T20:42:25;17.77;;;14.10;;
60819;SDS011;46641;48.904;9.126;2024-03-02T20:47:18;17.90;;;13.57;;
60819;SDS011;46641;48.904;9.126;2024-03-02T20:52:08;15.23;;;12.80;;
60819;SDS011;46641;48.904;9.126;2024-03-02T20:56:59;16.60;;;12.63;;
60819;SDS011;46641;48.904;9.126;2024-03-02T21:01:49;14.95;;;12.55;;
60819;SDS011;46641;48.904;9.126;2024-03-02T21:06:40;28.60;;;21.10;;
60819;SDS011;46641;48.904;9.126;2024-03-02T21:11:30;16.73;;;14.45;;
60819;SDS011;46641;48.904;9.126;2024-03-02T21:16:21;17.53;;;14.13;;
60819;SDS011;46641;48.904;9.126;2024-03-02T21:21:11;16.42;;;13.77;;
60819;SDS011;46641;48.904;9.126;2024-03-02T21:26:02;18.13;;;13.80;;
60819;SDS011;46641;48.904;9.126;2024-03-02T21:30:53;18.70;;;14.53;;
60819;SDS011;46641;48.904;9.126;2024-03-02T21:35:43;18.93;;;14.00;;
60819;SDS011;46641;48.904;9.126;2024-03-02T21:40:34;21.55;;;14.55;;
60819;SDS011;46641;48.904;9.126;2024-03-02T21:45:24;19.10;;;14.13;;
60819;SDS011;46641;48.904;9.126;2024-03-02T21:50:15;17.47;;;13.30;;
60819;SDS011;46641;48.904;9.126;2024-03-02T21:55:06;16.83;;;13.47;;
60819;SDS011;46641;48.904;9.126;2024-03-02T21:59:58;16.17;;;11.97;;
60819;SDS011;46641;48.904;9.126;2024-03-02T22:04:48;16.77;;;13.10;;
60819;SDS011;46641;48.904;9.126;2024-03-02T22:09:39;16.80;;;12.98;;
60819;SDS011;46641;48.904;9.126;2024-03-02T22:14:29;18.17;;;14.53;;
60819;SDS011;46641;48.904;9.126;2024-03-02T22:19:20;17.97;;;12.77;;
60819;SDS011;46641;48.904;9.126;2024-03-02T22:24:13;18.05;;;13.35;;
60819;SDS011;46641;48.904;9.126;2024-03-02T22:29:03;16.83;;;12.83;;
60819;SDS011;46641;48.904;9.126;2024-03-02T22:33:54;15.80;;;13.05;;
60819;SDS011;46641;48.904;9.126;2024-03-02T22:38:44;16.97;;;13.57;;
60819;SDS011;46641;48.904;9.126;2024-03-02T22:43:34;14.80;;;11.35;;
60819;SDS011;46641;48.904;9.126;2024-03-02T22:48:24;20.92;;;17.45;;
60819;SDS011;46641;48.904;9.126;2024-03-02T22:53:15;19.05;;;15.43;;
60819;SDS011;46641;48.904;9.126;2024-03-02T22:58:05;20.35;;;15.90;;
60819;SDS011;46641;48.904;9.126;2024-03-02T23:02:55;22.17;;;16.90;;
60819;SDS011;46641;48.904;9.126;2024-03-02T23:07:46;21.23;;;14.83;;
60819;SDS011;46641;48.904;9.126;2024-03-02T23:12:36;17.27;;;13.20;;
60819;SDS011;46641;48.904;9.126;2024-03-02T23:17:26;17.77;;;13.63;;
60819;SDS011;46641;48.904;9.126;2024-03-02T23:22:16;19.33;;;15.70;;
60819;SDS011;46641;48.904;9.126;2024-03-02T23:27:07;18.67;;;14.40;;
60819;SDS011;46641;48.904;9.126;2024-03-02T23:31:57;21.63;;;15.90;;
60819;SDS011;46641;48.904;9.126;2024-03-02T23:36:48;20.27;;;15.43;;
60819;SDS011;46641;48.904;9.126;2024-03-02T23:41:38;18.13;;;13.60;;
60819;SDS011;46641;48.904;9.126;2024-03-02T23:46:28;16.10;;;13.82;;
60819;SDS011;46641;48.904;9.126;2024-03-02T23:51:18;19.87;;;15.23;;
60819;SDS011;46641;48.904;9.126;2024-03-02T23:56:12;19.58;;;13.10;;
